sensor_id;sensor_type;location;lat;lon;timestamp;temperature;humidity
13742;DHT22;8461;52.356;10.704;2023-09-07T00:00:18;16.60;99.90
13742;DHT22;8461;52.356;10.704;2023-09-07T00:02:44;16.60;99.90
13742;DHT22;8461;52.356;10.704;2023-09-07T00:05:10;16.60;99.90
13742;DHT22;8461;52.356;10.704;2023-09-07T00:07:36;16.50;99.90
13742;DHT22;8461;52.356;10.704;2023-09-07T00:10:02;16.60;99.90
13742;DHT22;8461;52.356;10.704;2023-09-07T00:12:28;16.60;99.90
13742;DHT22;8461;52.356;10.704;2023-09-07T00:14:54;16.60;99.90
13742;DHT22;8461;52.356;10.704;2023-09-07T00:17:20;16.60;99.90
13742;DHT22;8461;52.356;10.704;2023-09-07T00:19:46;16.20;99.90
13742;DHT22;8461;52.356;10.704;2023-09-07T00:22:14;16.60;99.90
13742;DHT22;8461;52.356;10.704;2023-09-07T00:24:40;16.60;99.90
13742;DHT22;8461;52.356;10.704;2023-09-07T00:27:06;16.50;99.90
13742;DHT22;8461;52.356;10.704;2023-09-07T00:29:34;16.50;99.90
13742;DHT22;8461;52.356;10.704;2023-09-07T00:32:00;16.50;99.90
13742;DHT22;8461;52.356;10.704;2023-09-07T00:34:25;16.50;99.90
13742;DHT22;8461;52.356;10.704;2023-09-07T00:36:51;16.60;99.90
13742;DHT22;8461;52.356;10.704;2023-09-07T00:39:17;16.50;99.90
13742;DHT22;8461;52.356;10.704;2023-09-07T00:41:42;16.50;99.90
13742;DHT22;8461;52.356;10.704;2023-09-07T00:44:08;16.50;99.90
13742;DHT22;8461;52.356;10.704;2023-09-07T00:46:33;16.60;99.90
13742;DHT22;8461;52.356;10.704;2023-09-07T00:48:59;15.70;99.90
13742;DHT22;8461;52.356;10.704;2023-09-07T00:51:25;16.40;99.90
13742;DHT22;8461;52.356;10.704;2023-09-07T00:53:50;16.40;99.90
13742;DHT22;8461;52.356;10.704;2023-09-07T00:56:17;16.60;99.90
13742;DHT22;8461;52.356;10.704;2023-09-07T00:58:42;16.50;99.90
13742;DHT22;8461;52.356;10.704;2023-09-07T01:01:09;16.50;99.90
13742;DHT22;8461;52.356;10.704;2023-09-07T01:03:34;16.50;99.90
13742;DHT22;8461;52.356;10.704;2023-09-07T01:06:12;16.30;99.90
13742;DHT22;8461;52.356;10.704;2023-09-07T01:08:46;16.30;99.90
13742;DHT22;8461;52.356;10.704;2023-09-07T01:11:14;16.20;99.90
13742;DHT22;8461;52.356;10.704;2023-09-07T01:13:40;16.10;99.90
13742;DHT22;8461;52.356;10.704;2023-09-07T01:16:07;16.30;99.90
13742;DHT22;8461;52.356;10.704;2023-09-07T01:18:33;16.30;99.90
13742;DHT22;8461;52.356;10.704;2023-09-07T01:21:00;16.30;99.90
13742;DHT22;8461;52.356;10.704;2023-09-07T01:23:28;16.30;99.90
13742;DHT22;8461;52.356;10.704;2023-09-07T01:25:55;16.20;99.90
13742;DHT22;8461;52.356;10.704;2023-09-07T01:28:21;16.30;99.90
13742;DHT22;8461;52.356;10.704;2023-09-07T01:30:47;16.30;99.90
13742;DHT22;8461;52.356;10.704;2023-09-07T01:33:12;16.20;99.90
13742;DHT22;8461;52.356;10.704;2023-09-07T01:35:38;16.00;99.90
13742;DHT22;8461;52.356;10.704;2023-09-07T01:38:04;16.00;99.90
13742;DHT22;8461;52.356;10.704;2023-09-07T01:40:29;15.70;99.90
13742;DHT22;8461;52.356;10.704;2023-09-07T01:42:55;15.70;99.90
13742;DHT22;8461;52.356;10.704;2023-09-07T01:45:20;15.70;99.90
13742;DHT22;8461;52.356;10.704;2023-09-07T01:47:47;15.60;99.90
13742;DHT22;8461;52.356;10.704;2023-09-07T01:50:12;15.60;99.90
13742;DHT22;8461;52.356;10.704;2023-09-07T01:52:39;15.60;99.90
13742;DHT22;8461;52.356;10.704;2023-09-07T01:55:05;15.60;99.90
13742;DHT22;8461;52.356;10.704;2023-09-07T01:57:31;15.60;99.90
13742;DHT22;8461;52.356;10.704;2023-09-07T01:59:58;15.60;99.90
13742;DHT22;8461;52.356;10.704;2023-09-07T02:02:23;15.60;99.90
13742;DHT22;8461;52.356;10.704;2023-09-07T02:04:49;15.70;99.90
13742;DHT22;8461;52.356;10.704;2023-09-07T02:07:14;15.60;99.90
13742;DHT22;8461;52.356;10.704;2023-09-07T02:09:41;15.60;99.90
13742;DHT22;8461;52.356;10.704;2023-09-07T02:12:06;15.60;99.90
13742;DHT22;8461;52.356;10.704;2023-09-07T02:14:32;15.60;99.90
13742;DHT22;8461;52.356;10.704;2023-09-07T02:16:58;15.60;99.90
13742;DHT22;8461;52.356;10.704;2023-09-07T02:19:23;15.60;99.90
13742;DHT22;8461;52.356;10.704;2023-09-07T02:21:49;15.70;99.90
13742;DHT22;8461;52.356;10.704;2023-09-07T02:24:16;15.40;99.90
13742;DHT22;8461;52.356;10.704;2023-09-07T02:26:42;15.70;99.90
13742;DHT22;8461;52.356;10.704;2023-09-07T02:29:13;15.60;99.90
13742;DHT22;8461;52.356;10.704;2023-09-07T02:31:42;15.50;99.90
13742;DHT22;8461;52.356;10.704;2023-09-07T02:34:07;15.60;99.90
13742;DHT22;8461;52.356;10.704;2023-09-07T02:36:34;15.50;99.90
13742;DHT22;8461;52.356;10.704;2023-09-07T02:39:00;15.50;99.90
13742;DHT22;8461;52.356;10.704;2023-09-07T02:41:27;15.40;99.90
13742;DHT22;8461;52.356;10.704;2023-09-07T02:43:52;15.40;99.90
13742;DHT22;8461;52.356;10.704;2023-09-07T02:46:18;15.40;99.90
13742;DHT22;8461;52.356;10.704;2023-09-07T02:48:43;15.40;99.90
13742;DHT22;8461;52.356;10.704;2023-09-07T02:51:09;15.20;99.90
13742;DHT22;8461;52.356;10.704;2023-09-07T02:53:34;15.20;99.90
13742;DHT22;8461;52.356;10.704;2023-09-07T02:56:00;15.20;99.90
13742;DHT22;8461;52.356;10.704;2023-09-07T03:00:56;15.10;99.90
13742;DHT22;8461;52.356;10.704;2023-09-07T03:03:21;15.20;99.90
13742;DHT22;8461;52.356;10.704;2023-09-07T03:05:47;15.10;99.90
13742;DHT22;8461;52.356;10.704;2023-09-07T03:08:12;15.20;99.90
13742;DHT22;8461;52.356;10.704;2023-09-07T03:10:39;15.10;99.90
13742;DHT22;8461;52.356;10.704;2023-09-07T03:13:06;15.00;99.90
13742;DHT22;8461;52.356;10.704;2023-09-07T03:15:32;15.00;99.90
13742;DHT22;8461;52.356;10.704;2023-09-07T03:17:57;15.10;99.90
13742;DHT22;8461;52.356;10.704;2023-09-07T03:20:23;15.10;99.90
13742;DHT22;8461;52.356;10.704;2023-09-07T03:22:49;15.10;99.90
13742;DHT22;8461;52.356;10.704;2023-09-07T03:25:14;14.90;99.90
13742;DHT22;8461;52.356;10.704;2023-09-07T03:27:40;14.80;99.90
13742;DHT22;8461;52.356;10.704;2023-09-07T03:30:06;14.70;99.90
13742;DHT22;8461;52.356;10.704;2023-09-07T03:32:33;14.80;99.90
13742;DHT22;8461;52.356;10.704;2023-09-07T03:35:03;14.70;99.90
13742;DHT22;8461;52.356;10.704;2023-09-07T03:37:35;14.70;99.90
13742;DHT22;8461;52.356;10.704;2023-09-07T03:40:00;14.60;99.90
13742;DHT22;8461;52.356;10.704;2023-09-07T03:42:26;14.60;99.90
13742;DHT22;8461;52.356;10.704;2023-09-07T03:44:52;14.60;99.90
13742;DHT22;8461;52.356;10.704;2023-09-07T03:47:17;14.70;99.90
13742;DHT22;8461;52.356;10.704;2023-09-07T03:49:43;14.80;99.90
13742;DHT22;8461;52.356;10.704;2023-09-07T03:52:10;14.90;99.90
13742;DHT22;8461;52.356;10.704;2023-09-07T03:54:37;14.70;99.90
13742;DHT22;8461;52.356;10.704;2023-09-07T03:57:03;14.60;99.90
13742;DHT22;8461;52.356;10.704;2023-09-07T03:59:30;14.60;99.90
13742;DHT22;8461;52.356;10.704;2023-09-07T04:01:55;14.60;99.90
13742;DHT22;8461;52.356;10.704;2023-09-07T04:04:21;14.70;99.90
13742;DHT22;8461;52.356;10.704;2023-09-07T04:06:47;14.70;99.90
13742;DHT22;8461;52.356;10.704;2023-09-07T04:09:15;14.80;99.90
13742;DHT22;8461;52.356;10.704;2023-09-07T04:11:41;14.70;99.90
13742;DHT22;8461;52.356;10.704;2023-09-07T04:14:06;14.60;99.90
13742;DHT22;8461;52.356;10.704;2023-09-07T04:16:32;14.50;99.90
13742;DHT22;8461;52.356;10.704;2023-09-07T04:18:57;14.50;99.90
13742;DHT22;8461;52.356;10.704;2023-09-07T04:21:23;14.60;99.90
13742;DHT22;8461;52.356;10.704;2023-09-07T04:23:48;14.50;99.90
13742;DHT22;8461;52.356;10.704;2023-09-07T04:26:14;14.50;99.90
13742;DHT22;8461;52.356;10.704;2023-09-07T04:28:40;14.50;99.90
13742;DHT22;8461;52.356;10.704;2023-09-07T04:31:06;14.60;99.90
13742;DHT22;8461;52.356;10.704;2023-09-07T04:33:32;14.60;99.90
13742;DHT22;8461;52.356;10.704;2023-09-07T04:36:12;14.30;99.90
13742;DHT22;8461;52.356;10.704;2023-09-07T04:38:39;14.50;99.90
13742;DHT22;8461;52.356;10.704;2023-09-07T04:41:09;14.40;99.90
13742;DHT22;8461;52.356;10.704;2023-09-07T04:43:35;14.40;99.90
13742;DHT22;8461;52.356;10.704;2023-09-07T04:46:01;14.50;99.90
13742;DHT22;8461;52.356;10.704;2023-09-07T04:48:26;14.40;99.90
13742;DHT22;8461;52.356;10.704;2023-09-07T04:50:59;14.40;99.90
13742;DHT22;8461;52.356;10.704;2023-09-07T04:53:26;14.40;99.90
13742;DHT22;8461;52.356;10.704;2023-09-07T04:55:52;14.40;99.90
13742;DHT22;8461;52.356;10.704;2023-09-07T04:58:17;14.50;99.90
13742;DHT22;8461;52.356;10.704;2023-09-07T05:00:43;14.50;99.90
13742;DHT22;8461;52.356;10.704;2023-09-07T05:03:09;14.40;99.90
13742;DHT22;8461;52.356;10.704;2023-09-07T05:05:34;14.50;99.90
13742;DHT22;8461;52.356;10.704;2023-09-07T05:08:00;14.40;99.90
13742;DHT22;8461;52.356;10.704;2023-09-07T05:10:25;14.40;99.90
13742;DHT22;8461;52.356;10.704;2023-09-07T05:12:51;14.30;99.90
13742;DHT22;8461;52.356;10.704;2023-09-07T05:15:17;14.40;99.90
13742;DHT22;8461;52.356;10.704;2023-09-07T05:17:42;14.40;99.90
13742;DHT22;8461;52.356;10.704;2023-09-07T05:20:08;14.50;99.90
13742;DHT22;8461;52.356;10.704;2023-09-07T05:22:34;14.60;99.90
13742;DHT22;8461;52.356;10.704;2023-09-07T05:25:02;14.60;99.90
13742;DHT22;8461;52.356;10.704;2023-09-07T05:27:28;14.70;99.90
13742;DHT22;8461;52.356;10.704;2023-09-07T05:29:54;14.80;99.90
13742;DHT22;8461;52.356;10.704;2023-09-07T05:32:19;14.80;99.90
13742;DHT22;8461;52.356;10.704;2023-09-07T05:34:45;15.00;99.90
13742;DHT22;8461;52.356;10.704;2023-09-07T05:37:10;15.10;99.90
13742;DHT22;8461;52.356;10.704;2023-09-07T05:39:36;15.20;99.90
13742;DHT22;8461;52.356;10.704;2023-09-07T05:42:01;15.30;99.90
13742;DHT22;8461;52.356;10.704;2023-09-07T05:44:27;15.20;99.90
13742;DHT22;8461;52.356;10.704;2023-09-07T05:46:52;15.50;99.90
13742;DHT22;8461;52.356;10.704;2023-09-07T05:49:19;15.60;99.90
13742;DHT22;8461;52.356;10.704;2023-09-07T05:51:47;15.70;99.90
13742;DHT22;8461;52.356;10.704;2023-09-07T05:54:12;15.70;99.90
13742;DHT22;8461;52.356;10.704;2023-09-07T05:56:38;15.80;99.90
13742;DHT22;8461;52.356;10.704;2023-09-07T05:59:04;15.90;99.90
13742;DHT22;8461;52.356;10.704;2023-09-07T06:01:30;15.90;99.90
13742;DHT22;8461;52.356;10.704;2023-09-07T06:03:55;16.00;99.90
13742;DHT22;8461;52.356;10.704;2023-09-07T06:06:21;16.10;99.90
13742;DHT22;8461;52.356;10.704;2023-09-07T06:08:46;16.00;99.90
13742;DHT22;8461;52.356;10.704;2023-09-07T06:11:12;16.10;99.90
13742;DHT22;8461;52.356;10.704;2023-09-07T06:13:37;16.20;99.90
13742;DHT22;8461;52.356;10.704;2023-09-07T06:16:03;16.30;99.90
13742;DHT22;8461;52.356;10.704;2023-09-07T06:18:29;16.30;99.90
13742;DHT22;8461;52.356;10.704;2023-09-07T06:20:54;16.40;99.90
13742;DHT22;8461;52.356;10.704;2023-09-07T06:23:20;16.50;99.90
13742;DHT22;8461;52.356;10.704;2023-09-07T06:25:45;16.50;99.90
13742;DHT22;8461;52.356;10.704;2023-09-07T06:28:11;16.60;99.90
13742;DHT22;8461;52.356;10.704;2023-09-07T06:30:36;16.90;99.90
13742;DHT22;8461;52.356;10.704;2023-09-07T06:33:02;16.80;99.90
13742;DHT22;8461;52.356;10.704;2023-09-07T06:35:27;17.00;99.90
13742;DHT22;8461;52.356;10.704;2023-09-07T06:37:53;17.00;99.90
13742;DHT22;8461;52.356;10.704;2023-09-07T06:40:18;17.20;99.90
13742;DHT22;8461;52.356;10.704;2023-09-07T06:42:44;17.30;99.90
13742;DHT22;8461;52.356;10.704;2023-09-07T06:45:10;17.50;99.90
13742;DHT22;8461;52.356;10.704;2023-09-07T06:47:35;17.60;99.90
13742;DHT22;8461;52.356;10.704;2023-09-07T06:50:02;17.70;99.90
13742;DHT22;8461;52.356;10.704;2023-09-07T06:52:28;17.60;99.90
13742;DHT22;8461;52.356;10.704;2023-09-07T06:54:53;17.70;99.90
13742;DHT22;8461;52.356;10.704;2023-09-07T06:57:19;17.90;99.90
13742;DHT22;8461;52.356;10.704;2023-09-07T06:59:45;18.00;99.90
13742;DHT22;8461;52.356;10.704;2023-09-07T07:02:10;17.90;99.90
13742;DHT22;8461;52.356;10.704;2023-09-07T07:04:36;18.10;99.90
13742;DHT22;8461;52.356;10.704;2023-09-07T07:07:01;18.10;99.90
13742;DHT22;8461;52.356;10.704;2023-09-07T07:09:32;18.20;99.90
13742;DHT22;8461;52.356;10.704;2023-09-07T07:12:01;18.40;99.90
13742;DHT22;8461;52.356;10.704;2023-09-07T07:14:27;18.30;99.90
13742;DHT22;8461;52.356;10.704;2023-09-07T07:16:53;18.50;99.90
13742;DHT22;8461;52.356;10.704;2023-09-07T07:19:18;18.60;99.90
13742;DHT22;8461;52.356;10.704;2023-09-07T07:21:44;18.60;99.90
13742;DHT22;8461;52.356;10.704;2023-09-07T07:24:10;18.90;99.90
13742;DHT22;8461;52.356;10.704;2023-09-07T07:26:35;18.90;99.90
13742;DHT22;8461;52.356;10.704;2023-09-07T07:29:02;19.00;99.90
13742;DHT22;8461;52.356;10.704;2023-09-07T07:31:28;19.10;99.90
13742;DHT22;8461;52.356;10.704;2023-09-07T07:33:55;19.30;99.90
13742;DHT22;8461;52.356;10.704;2023-09-07T07:36:21;19.50;99.90
13742;DHT22;8461;52.356;10.704;2023-09-07T07:38:46;19.70;99.90
13742;DHT22;8461;52.356;10.704;2023-09-07T07:41:12;19.60;99.90
13742;DHT22;8461;52.356;10.704;2023-09-07T07:43:37;19.60;99.90
13742;DHT22;8461;52.356;10.704;2023-09-07T07:46:03;19.70;99.90
13742;DHT22;8461;52.356;10.704;2023-09-07T07:48:29;19.80;99.90
13742;DHT22;8461;52.356;10.704;2023-09-07T07:50:55;20.00;99.90
13742;DHT22;8461;52.356;10.704;2023-09-07T07:53:20;20.10;99.90
13742;DHT22;8461;52.356;10.704;2023-09-07T07:55:46;20.10;99.90
13742;DHT22;8461;52.356;10.704;2023-09-07T07:58:14;20.10;99.90
13742;DHT22;8461;52.356;10.704;2023-09-07T08:00:39;20.60;99.90
13742;DHT22;8461;52.356;10.704;2023-09-07T08:03:06;20.30;99.90
13742;DHT22;8461;52.356;10.704;2023-09-07T08:05:33;20.50;99.90
13742;DHT22;8461;52.356;10.704;2023-09-07T08:07:59;20.60;99.90
13742;DHT22;8461;52.356;10.704;2023-09-07T08:10:25;20.60;99.90
13742;DHT22;8461;52.356;10.704;2023-09-07T08:12:56;20.70;99.90
13742;DHT22;8461;52.356;10.704;2023-09-07T08:15:23;20.80;99.90
13742;DHT22;8461;52.356;10.704;2023-09-07T08:17:50;20.90;99.90
13742;DHT22;8461;52.356;10.704;2023-09-07T08:20:16;20.90;99.90
13742;DHT22;8461;52.356;10.704;2023-09-07T08:22:42;21.00;99.90
13742;DHT22;8461;52.356;10.704;2023-09-07T08:25:09;21.00;99.90
13742;DHT22;8461;52.356;10.704;2023-09-07T08:27:34;21.10;99.90
13742;DHT22;8461;52.356;10.704;2023-09-07T08:30:00;21.10;99.90
13742;DHT22;8461;52.356;10.704;2023-09-07T08:32:26;21.20;99.90
13742;DHT22;8461;52.356;10.704;2023-09-07T08:34:51;21.30;99.90
13742;DHT22;8461;52.356;10.704;2023-09-07T08:37:21;21.30;99.90
13742;DHT22;8461;52.356;10.704;2023-09-07T08:39:47;21.40;99.90
13742;DHT22;8461;52.356;10.704;2023-09-07T08:42:13;21.50;99.90
13742;DHT22;8461;52.356;10.704;2023-09-07T08:44:39;21.60;99.90
13742;DHT22;8461;52.356;10.704;2023-09-07T08:47:08;21.70;99.90
13742;DHT22;8461;52.356;10.704;2023-09-07T08:49:33;21.70;99.90
13742;DHT22;8461;52.356;10.704;2023-09-07T08:52:01;21.80;99.90
13742;DHT22;8461;52.356;10.704;2023-09-07T08:54:28;21.90;99.90
13742;DHT22;8461;52.356;10.704;2023-09-07T08:56:56;22.00;99.90
13742;DHT22;8461;52.356;10.704;2023-09-07T08:59:22;22.00;99.90
13742;DHT22;8461;52.356;10.704;2023-09-07T09:01:48;22.10;99.90
13742;DHT22;8461;52.356;10.704;2023-09-07T09:04:13;22.30;99.90
13742;DHT22;8461;52.356;10.704;2023-09-07T09:06:39;22.40;99.90
13742;DHT22;8461;52.356;10.704;2023-09-07T09:09:05;22.50;99.90
13742;DHT22;8461;52.356;10.704;2023-09-07T09:11:31;22.50;99.90
13742;DHT22;8461;52.356;10.704;2023-09-07T09:13:56;22.40;99.90
13742;DHT22;8461;52.356;10.704;2023-09-07T09:16:22;22.50;99.90
13742;DHT22;8461;52.356;10.704;2023-09-07T09:21:14;22.50;99.90
13742;DHT22;8461;52.356;10.704;2023-09-07T09:23:41;22.60;99.90
13742;DHT22;8461;52.356;10.704;2023-09-07T09:26:07;22.80;99.90
13742;DHT22;8461;52.356;10.704;2023-09-07T09:28:33;22.90;99.90
13742;DHT22;8461;52.356;10.704;2023-09-07T09:31:03;23.10;99.90
13742;DHT22;8461;52.356;10.704;2023-09-07T09:33:32;23.10;99.90
13742;DHT22;8461;52.356;10.704;2023-09-07T09:35:58;23.20;99.90
13742;DHT22;8461;52.356;10.704;2023-09-07T09:38:25;23.20;99.90
13742;DHT22;8461;52.356;10.704;2023-09-07T09:40:52;23.30;99.90
13742;DHT22;8461;52.356;10.704;2023-09-07T09:43:20;23.30;99.90
13742;DHT22;8461;52.356;10.704;2023-09-07T09:45:45;23.50;99.90
13742;DHT22;8461;52.356;10.704;2023-09-07T09:48:12;23.60;99.90
13742;DHT22;8461;52.356;10.704;2023-09-07T09:50:40;23.60;99.90
13742;DHT22;8461;52.356;10.704;2023-09-07T09:53:06;23.60;99.90
13742;DHT22;8461;52.356;10.704;2023-09-07T09:55:33;23.70;99.90
13742;DHT22;8461;52.356;10.704;2023-09-07T09:57:59;23.80;99.90
13742;DHT22;8461;52.356;10.704;2023-09-07T10:00:25;23.80;99.90
13742;DHT22;8461;52.356;10.704;2023-09-07T10:03:02;23.90;99.90
13742;DHT22;8461;52.356;10.704;2023-09-07T10:05:30;23.80;99.90
13742;DHT22;8461;52.356;10.704;2023-09-07T10:08:01;24.00;99.90
13742;DHT22;8461;52.356;10.704;2023-09-07T10:10:34;24.00;99.90
13742;DHT22;8461;52.356;10.704;2023-09-07T10:13:01;24.20;99.90
13742;DHT22;8461;52.356;10.704;2023-09-07T10:15:28;24.30;99.90
13742;DHT22;8461;52.356;10.704;2023-09-07T10:18:06;24.50;99.90
13742;DHT22;8461;52.356;10.704;2023-09-07T10:23:18;24.60;99.90
13742;DHT22;8461;52.356;10.704;2023-09-07T10:25:51;24.80;99.90
13742;DHT22;8461;52.356;10.704;2023-09-07T10:28:25;24.80;99.90
13742;DHT22;8461;52.356;10.704;2023-09-07T10:31:18;24.90;99.90
13742;DHT22;8461;52.356;10.704;2023-09-07T10:33:44;25.00;99.90
13742;DHT22;8461;52.356;10.704;2023-09-07T10:38:46;25.00;99.90
13742;DHT22;8461;52.356;10.704;2023-09-07T10:41:13;25.10;99.90
13742;DHT22;8461;52.356;10.704;2023-09-07T10:43:47;25.30;99.90
13742;DHT22;8461;52.356;10.704;2023-09-07T10:46:13;25.20;99.90
13742;DHT22;8461;52.356;10.704;2023-09-07T10:48:39;25.20;99.90
13742;DHT22;8461;52.356;10.704;2023-09-07T10:51:06;25.20;99.90
13742;DHT22;8461;52.356;10.704;2023-09-07T10:53:32;25.30;99.90
13742;DHT22;8461;52.356;10.704;2023-09-07T10:56:04;25.40;99.90
13742;DHT22;8461;52.356;10.704;2023-09-07T10:58:35;25.50;99.90
13742;DHT22;8461;52.356;10.704;2023-09-07T11:01:01;25.60;99.90
13742;DHT22;8461;52.356;10.704;2023-09-07T11:03:29;25.70;99.90
13742;DHT22;8461;52.356;10.704;2023-09-07T11:05:58;25.80;99.90
13742;DHT22;8461;52.356;10.704;2023-09-07T11:08:24;25.70;99.90
13742;DHT22;8461;52.356;10.704;2023-09-07T11:10:50;25.60;99.90
13742;DHT22;8461;52.356;10.704;2023-09-07T11:13:17;26.30;99.90
13742;DHT22;8461;52.356;10.704;2023-09-07T11:15:43;25.80;99.90
13742;DHT22;8461;52.356;10.704;2023-09-07T11:18:09;25.80;99.90
13742;DHT22;8461;52.356;10.704;2023-09-07T11:20:35;25.90;99.90
13742;DHT22;8461;52.356;10.704;2023-09-07T11:23:02;26.00;99.90
13742;DHT22;8461;52.356;10.704;2023-09-07T11:25:34;26.10;99.90
13742;DHT22;8461;52.356;10.704;2023-09-07T11:28:02;26.30;99.90
13742;DHT22;8461;52.356;10.704;2023-09-07T11:30:28;26.40;99.90
13742;DHT22;8461;52.356;10.704;2023-09-07T11:33:02;26.40;99.90
13742;DHT22;8461;52.356;10.704;2023-09-07T11:35:27;26.60;99.90
13742;DHT22;8461;52.356;10.704;2023-09-07T11:37:53;26.70;99.90
13742;DHT22;8461;52.356;10.704;2023-09-07T11:40:19;26.70;99.90
13742;DHT22;8461;52.356;10.704;2023-09-07T11:42:45;26.80;99.90
13742;DHT22;8461;52.356;10.704;2023-09-07T11:45:10;26.80;99.90
13742;DHT22;8461;52.356;10.704;2023-09-07T11:47:38;26.80;99.90
13742;DHT22;8461;52.356;10.704;2023-09-07T11:50:05;26.80;99.90
13742;DHT22;8461;52.356;10.704;2023-09-07T11:52:32;26.80;99.90
13742;DHT22;8461;52.356;10.704;2023-09-07T11:54:57;27.10;99.90
13742;DHT22;8461;52.356;10.704;2023-09-07T11:57:23;26.90;99.90
13742;DHT22;8461;52.356;10.704;2023-09-07T11:59:49;26.80;99.90
13742;DHT22;8461;52.356;10.704;2023-09-07T12:02:14;27.00;99.90
13742;DHT22;8461;52.356;10.704;2023-09-07T12:04:41;27.00;99.90
13742;DHT22;8461;52.356;10.704;2023-09-07T12:07:07;27.00;99.90
13742;DHT22;8461;52.356;10.704;2023-09-07T12:09:32;27.10;99.90
13742;DHT22;8461;52.356;10.704;2023-09-07T12:11:58;27.20;99.90
13742;DHT22;8461;52.356;10.704;2023-09-07T12:14:24;27.30;99.90
13742;DHT22;8461;52.356;10.704;2023-09-07T12:16:49;27.10;99.90
13742;DHT22;8461;52.356;10.704;2023-09-07T12:19:15;27.30;99.90
13742;DHT22;8461;52.356;10.704;2023-09-07T12:21:40;27.30;99.90
13742;DHT22;8461;52.356;10.704;2023-09-07T12:24:07;27.10;99.90
13742;DHT22;8461;52.356;10.704;2023-09-07T12:26:33;26.80;99.90
13742;DHT22;8461;52.356;10.704;2023-09-07T12:28:58;27.30;99.90
13742;DHT22;8461;52.356;10.704;2023-09-07T12:31:25;27.30;99.90
13742;DHT22;8461;52.356;10.704;2023-09-07T12:33:50;27.30;99.90
13742;DHT22;8461;52.356;10.704;2023-09-07T12:36:17;27.30;99.90
13742;DHT22;8461;52.356;10.704;2023-09-07T12:38:42;27.30;99.90
13742;DHT22;8461;52.356;10.704;2023-09-07T12:41:08;27.50;99.90
13742;DHT22;8461;52.356;10.704;2023-09-07T12:43:34;27.50;99.90
13742;DHT22;8461;52.356;10.704;2023-09-07T12:45:59;27.50;99.90
13742;DHT22;8461;52.356;10.704;2023-09-07T12:48:25;27.50;99.90
13742;DHT22;8461;52.356;10.704;2023-09-07T12:50:50;27.50;99.90
13742;DHT22;8461;52.356;10.704;2023-09-07T12:53:16;27.50;99.90
13742;DHT22;8461;52.356;10.704;2023-09-07T12:55:42;27.40;99.90
13742;DHT22;8461;52.356;10.704;2023-09-07T12:58:07;27.40;99.90
13742;DHT22;8461;52.356;10.704;2023-09-07T13:00:33;27.40;99.90
13742;DHT22;8461;52.356;10.704;2023-09-07T13:02:58;27.40;99.90
13742;DHT22;8461;52.356;10.704;2023-09-07T13:05:24;27.40;99.90
13742;DHT22;8461;52.356;10.704;2023-09-07T13:07:49;27.40;99.90
13742;DHT22;8461;52.356;10.704;2023-09-07T13:10:15;27.50;99.90
13742;DHT22;8461;52.356;10.704;2023-09-07T13:12:41;27.60;99.90
13742;DHT22;8461;52.356;10.704;2023-09-07T13:15:07;27.60;99.90
13742;DHT22;8461;52.356;10.704;2023-09-07T13:17:33;27.50;99.90
13742;DHT22;8461;52.356;10.704;2023-09-07T13:19:58;27.60;99.90
13742;DHT22;8461;52.356;10.704;2023-09-07T13:22:24;27.70;99.90
13742;DHT22;8461;52.356;10.704;2023-09-07T13:24:50;27.60;99.90
13742;DHT22;8461;52.356;10.704;2023-09-07T13:27:15;27.60;99.90
13742;DHT22;8461;52.356;10.704;2023-09-07T13:29:41;27.60;99.90
13742;DHT22;8461;52.356;10.704;2023-09-07T13:32:07;27.50;99.90
13742;DHT22;8461;52.356;10.704;2023-09-07T13:34:32;27.50;99.90
13742;DHT22;8461;52.356;10.704;2023-09-07T13:36:58;27.50;99.90
13742;DHT22;8461;52.356;10.704;2023-09-07T13:39:23;27.50;99.90
13742;DHT22;8461;52.356;10.704;2023-09-07T13:41:49;27.50;99.90
13742;DHT22;8461;52.356;10.704;2023-09-07T13:44:15;27.50;99.90
13742;DHT22;8461;52.356;10.704;2023-09-07T13:46:41;27.50;99.90
13742;DHT22;8461;52.356;10.704;2023-09-07T13:49:07;27.50;99.90
13742;DHT22;8461;52.356;10.704;2023-09-07T13:51:33;27.40;99.90
13742;DHT22;8461;52.356;10.704;2023-09-07T13:54:04;27.50;99.90
13742;DHT22;8461;52.356;10.704;2023-09-07T13:56:30;27.40;99.90
13742;DHT22;8461;52.356;10.704;2023-09-07T13:58:56;27.30;99.90
13742;DHT22;8461;52.356;10.704;2023-09-07T14:01:21;27.30;99.90
13742;DHT22;8461;52.356;10.704;2023-09-07T14:03:47;27.40;99.90
13742;DHT22;8461;52.356;10.704;2023-09-07T14:06:13;27.30;99.90
13742;DHT22;8461;52.356;10.704;2023-09-07T14:08:38;27.30;99.90
13742;DHT22;8461;52.356;10.704;2023-09-07T14:11:04;27.40;99.90
13742;DHT22;8461;52.356;10.704;2023-09-07T14:13:31;27.40;99.90
13742;DHT22;8461;52.356;10.704;2023-09-07T14:15:59;27.50;99.90
13742;DHT22;8461;52.356;10.704;2023-09-07T14:18:25;27.50;99.90
13742;DHT22;8461;52.356;10.704;2023-09-07T14:20:50;27.50;99.90
13742;DHT22;8461;52.356;10.704;2023-09-07T14:23:16;27.50;99.90
13742;DHT22;8461;52.356;10.704;2023-09-07T14:25:42;27.50;99.90
13742;DHT22;8461;52.356;10.704;2023-09-07T14:28:10;27.50;99.90
13742;DHT22;8461;52.356;10.704;2023-09-07T14:30:36;27.50;99.90
13742;DHT22;8461;52.356;10.704;2023-09-07T14:33:01;27.40;99.90
13742;DHT22;8461;52.356;10.704;2023-09-07T14:35:27;27.30;99.90
13742;DHT22;8461;52.356;10.704;2023-09-07T14:37:52;27.40;99.90
13742;DHT22;8461;52.356;10.704;2023-09-07T14:40:18;27.40;99.90
13742;DHT22;8461;52.356;10.704;2023-09-07T14:42:44;27.40;99.90
13742;DHT22;8461;52.356;10.704;2023-09-07T14:45:10;27.30;99.90
13742;DHT22;8461;52.356;10.704;2023-09-07T14:47:35;27.40;99.90
13742;DHT22;8461;52.356;10.704;2023-09-07T14:50:01;27.40;99.90
13742;DHT22;8461;52.356;10.704;2023-09-07T14:52:27;27.20;99.90
13742;DHT22;8461;52.356;10.704;2023-09-07T14:54:53;27.60;99.90
13742;DHT22;8461;52.356;10.704;2023-09-07T14:57:18;27.40;99.90
13742;DHT22;8461;52.356;10.704;2023-09-07T14:59:44;27.30;99.90
13742;DHT22;8461;52.356;10.704;2023-09-07T15:02:09;27.40;99.90
13742;DHT22;8461;52.356;10.704;2023-09-07T15:04:35;27.40;99.90
13742;DHT22;8461;52.356;10.704;2023-09-07T15:07:01;27.40;99.90
13742;DHT22;8461;52.356;10.704;2023-09-07T15:09:27;27.40;99.90
13742;DHT22;8461;52.356;10.704;2023-09-07T15:11:53;27.10;99.90
13742;DHT22;8461;52.356;10.704;2023-09-07T15:14:19;27.20;99.90
13742;DHT22;8461;52.356;10.704;2023-09-07T15:16:45;27.20;99.90
13742;DHT22;8461;52.356;10.704;2023-09-07T15:19:10;27.20;99.90
13742;DHT22;8461;52.356;10.704;2023-09-07T15:21:36;27.10;99.90
13742;DHT22;8461;52.356;10.704;2023-09-07T15:24:01;27.30;99.90
13742;DHT22;8461;52.356;10.704;2023-09-07T15:26:27;27.30;99.90
13742;DHT22;8461;52.356;10.704;2023-09-07T15:28:53;27.30;99.90
13742;DHT22;8461;52.356;10.704;2023-09-07T15:31:18;27.20;99.90
13742;DHT22;8461;52.356;10.704;2023-09-07T15:33:44;27.10;99.90